Time,TemperatureF,DewpointF,PressureIn,WindDirection,WindDirectionDegrees,WindSpeedMPH,WindSpeedGustMPH,Humidity,HourlyPrecipIn,Conditions,Clouds,dailyrainin,SolarRadiationWatts/m^2,SoftwareType,DateUTC
2013-06-26 00:01:00,71.6,71.3,29.65,East,90,0.0,2.0,99,0.00,RA,SCT,0.00,0.0,WeatherDisplay:10.37,2013-06-26 04:01:00,
2013-06-26 00:05:00,71.6,71.3,29.66,East,90,0.0,1.0,99,0.00,RA,SCT,0.00,0.0,WeatherDisplay:10.37,2013-06-26 04:05:00,
2013-06-26 00:10:00,71.4,71.1,29.66,East,90,0.0,1.0,99,0.00,CLR,SCT,0.00,0.0,WeatherDisplay:10.37,2013-06-26 04:10:00,
2013-06-26 00:15:00,71.4,71.1,29.66,East,90,0.0,1.0,99,0.00,CLR,SCT,0.00,0.0,WeatherDisplay:10.37,2013-06-26 04:15:00,
2013-06-26 00:20:00,71.4,71.1,29.66,ENE,60,0.0,2.0,99,0.00,CLR,SCT,0.00,0.0,WeatherDisplay:10.37,2013-06-26 04:20:00,
2013-06-26 00:25:00,71.2,70.9,29.66,North,10,0.0,1.0,99,0.00,CLR,SCT,0.00,0.0,WeatherDisplay:10.37,2013-06-26 04:25:00,
2013-06-26 00:30:00,71.2,70.9,29.66,North,0,0.0,2.0,99,0.00,CLR,SCT,0.00,0.0,WeatherDisplay:10.37,2013-06-26 04:30:00,
2013-06-26 00:40:00,71.1,70.8,29.65,East,92,0.0,2.0,99,0.00,CLR,SCT,0.00,0.0,WeatherDisplay:10.37,2013-06-26 04:40:00,
2013-06-26 00:45:00,71.1,70.8,29.65,East,79,0.0,2.0,99,0.00,CLR,SCT,0.00,0.0,WeatherDisplay:10.37,2013-06-26 04:45:00,
2013-06-26 00:50:00,70.9,70.6,29.65,NE,52,0.0,2.0,99,0.00,CLR,SCT,0.00,0.0,WeatherDisplay:10.37,2013-06-26 04:50:00,
2013-06-26 00:55:00,70.9,70.6,29.65,NE,46,0.0,2.0,99,0.00,CLR,SCT,0.00,0.0,WeatherDisplay:10.37,2013-06-26 04:55:00,
2013-06-26 01:01:00,70.7,70.4,29.64,NE,48,0.0,1.0,99,0.00,CLR,SCT,0.00,0.0,WeatherDisplay:10.37,2013-06-26 05:01:00,
2013-06-26 01:10:00,70.6,70.3,29.65,ENE,57,0.0,1.0,99,0.00,CLR,SCT,0.00,0.0,WeatherDisplay:10.37,2013-06-26 05:10:00,
2013-06-26 01:15:00,70.5,70.2,29.65,East,80,0.0,1.0,99,0.00,CLR,SCT,0.00,0.0,WeatherDisplay:10.37,2013-06-26 05:15:00,
2013-06-26 01:25:00,70.5,70.2,29.65,East,90,0.0,1.0,99,0.00,CLR,SCT,0.00,0.0,WeatherDisplay:10.37,2013-06-26 05:25:00,
2013-06-26 01:30:00,70.5,70.2,29.65,East,90,0.0,2.0,99,0.00,CLR,SCT,0.00,0.0,WeatherDisplay:10.37,2013-06-26 05:30:00,
2013-06-26 01:40:00,70.3,70.0,29.64,WNW,298,0.0,1.0,99,0.00,CLR,SCT,0.00,0.0,WeatherDisplay:10.37,2013-06-26 05:40:00,
2013-06-26 01:45:00,70.3,70.0,29.65,WNW,292,0.0,1.0,99,0.00,CLR,SCT,0.00,0.0,WeatherDisplay:10.37,2013-06-26 05:45:00,
2013-06-26 01:55:00,70.2,69.9,29.63,NE,42,0.0,1.0,99,0.00,CLR,SCT,0.00,0.0,WeatherDisplay:10.37,2013-06-26 05:55:00,
2013-06-26 02:01:00,70.2,69.9,29.64,NE,45,0.0,1.0,99,0.00,CLR,SCT,0.00,0.0,WeatherDisplay:10.37,2013-06-26 06:01:00,
2013-06-26 02:10:00,70.2,69.9,29.63,NE,45,0.0,0.0,99,0.00,FEW,SCT,0.00,0.0,WeatherDisplay:10.37,2013-06-26 06:10:00,
2013-06-26 02:15:00,70.1,69.8,29.63,NE,45,0.0,0.0,99,0.00,FEW,SCT,0.00,0.0,WeatherDisplay:10.37,2013-06-26 06:15:00,
2013-06-26 02:25:00,70.2,69.9,29.63,NW,320,0.0,0.0,99,0.00,FEW,SCT,0.00,0.0,WeatherDisplay:10.37,2013-06-26 06:25:00,
2013-06-26 02:30:00,70.2,69.9,29.63,NW,315,0.0,0.0,99,0.00,FEW,SCT,0.00,0.0,WeatherDisplay:10.37,2013-06-26 06:30:00,
2013-06-26 02:40:00,70.0,69.7,29.62,NW,315,0.0,0.0,99,0.00,FEW,SCT,0.00,0.0,WeatherDisplay:10.37,2013-06-26 06:40:00,
2013-06-26 02:45:00,70.0,69.7,29.62,NW,315,0.0,1.0,99,0.00,FEW,SCT,0.00,0.0,WeatherDisplay:10.37,2013-06-26 06:45:00,
2013-06-26 02:55:00,69.8,69.5,29.63,NW,315,0.0,1.0,99,0.00,FEW,SCT,0.00,0.0,WeatherDisplay:10.37,2013-06-26 06:55:00,
2013-06-26 03:01:00,69.8,69.5,29.63,NW,315,0.0,1.0,99,0.00,FEW,SCT,0.00,0.0,WeatherDisplay:10.37,2013-06-26 07:01:00,
2013-06-26 03:10:00,69.6,69.3,29.63,NW,315,0.0,1.0,99,0.00,CLR,SCT,0.00,0.0,WeatherDisplay:10.37,2013-06-26 07:10:00,
2013-06-26 03:15:00,69.6,69.3,29.63,NW,315,0.0,1.0,99,0.00,CLR,SCT,0.00,0.0,WeatherDisplay:10.37,2013-06-26 07:15:00,
2013-06-26 03:25:00,69.4,69.1,29.63,NW,315,0.0,2.0,99,0.00,CLR,SCT,0.00,0.0,WeatherDisplay:10.37,2013-06-26 07:25:00,
2013-06-26 03:30:00,69.4,69.1,29.63,NW,305,0.0,2.0,99,0.00,CLR,SCT,0.00,0.0,WeatherDisplay:10.37,2013-06-26 07:30:00,
2013-06-26 03:40:00,69.3,69.0,29.63,West,270,0.0,1.0,99,0.00,CLR,SCT,0.00,0.0,WeatherDisplay:10.37,2013-06-26 07:40:00,
2013-06-26 03:45:00,69.3,69.0,29.63,WSW,238,0.0,2.0,99,0.00,CLR,SCT,0.00,0.0,WeatherDisplay:10.37,2013-06-26 07:45:00,
2013-06-26 03:55:00,69.3,69.0,29.64,South,180,0.0,2.0,99,0.00,CLR,SCT,0.00,0.0,WeatherDisplay:10.37,2013-06-26 07:55:00,
2013-06-26 04:01:00,69.4,69.1,29.63,South,180,1.0,2.0,99,0.00,CLR,SCT,0.00,0.0,WeatherDisplay:10.37,2013-06-26 08:01:00,
2013-06-26 04:10:00,69.3,69.0,29.64,South,180,0.0,1.0,99,0.00,CLR,SCT,0.00,0.0,WeatherDisplay:10.37,2013-06-26 08:10:00,
2013-06-26 04:15:00,69.3,69.0,29.64,South,180,0.0,2.0,99,0.00,CLR,SCT,0.00,0.0,WeatherDisplay:10.37,2013-06-26 08:15:00,
2013-06-26 04:25:00,69.1,68.8,29.64,South,180,0.0,2.0,99,0.00,CLR,SCT,0.00,0.0,WeatherDisplay:10.37,2013-06-26 08:25:00,
2013-06-26 04:30:00,69.1,68.8,29.65,South,180,1.0,2.0,99,0.00,CLR,SCT,0.00,0.0,WeatherDisplay:10.37,2013-06-26 08:30:00,
2013-06-26 04:40:00,69.1,68.8,29.65,SSE,155,0.0,2.0,99,0.00,CLR,SCT,0.00,0.0,WeatherDisplay:10.37,2013-06-26 08:40:00,
2013-06-26 04:45:00,69.1,68.8,29.65,SSE,155,0.0,2.0,99,0.00,CLR,SCT,0.00,0.0,WeatherDisplay:10.37,2013-06-26 08:45:00,
2013-06-26 04:55:00,69.1,68.8,29.64,SSW,202,0.0,0.0,99,0.00,CLR,SCT,0.00,0.0,WeatherDisplay:10.37,2013-06-26 08:55:00,
2013-06-26 05:01:00,69.1,68.8,29.65,SSW,202,0.0,0.0,99,0.00,CLR,SCT,0.00,0.0,WeatherDisplay:10.37,2013-06-26 09:01:00,
2013-06-26 05:10:00,68.9,68.6,29.65,SW,214,0.0,3.0,99,0.00,CLR,SCT,0.00,0.0,WeatherDisplay:10.37,2013-06-26 09:10:00,
2013-06-26 05:15:00,68.9,68.6,29.65,West,272,0.0,3.0,99,0.00,CLR,SCT,0.00,0.0,WeatherDisplay:10.37,2013-06-26 09:15:00,
2013-06-26 05:25:00,68.7,68.4,29.65,NNE,25,0.0,0.0,99,0.00,CLR,SCT,0.00,0.0,WeatherDisplay:10.37,2013-06-26 09:25:00,
2013-06-26 05:30:00,68.7,68.4,29.65,NE,45,0.0,0.0,99,0.00,CLR,SCT,0.00,0.0,WeatherDisplay:10.37,2013-06-26 09:30:00,
2013-06-26 05:40:00,68.7,68.4,29.65,NE,45,0.0,0.0,99,0.00,CLR,SCT,0.00,0.0,WeatherDisplay:10.37,2013-06-26 09:40:00,
2013-06-26 05:45:00,68.7,68.4,29.65,NE,45,0.0,0.0,99,0.00,CLR,SCT,0.00,0.0,WeatherDisplay:10.37,2013-06-26 09:45:00,
2013-06-26 05:55:00,68.9,68.6,29.65,ENE,59,0.0,0.0,99,0.00,CLR,SCT,0.00,0.0,WeatherDisplay:10.37,2013-06-26 09:55:00,
2013-06-26 06:00:00,68.9,68.6,29.66,East,85,0.0,2.0,99,0.00,CLR,SCT,0.00,0.0,WeatherDisplay:10.37,2013-06-26 10:00:00,
2013-06-26 06:10:00,69.2,68.9,29.66,SW,225,0.0,2.0,99,0.00,CLR,SCT,0.00,0.0,WeatherDisplay:10.37,2013-06-26 10:10:00,
2013-06-26 06:15:00,69.4,69.1,29.66,SW,225,0.0,1.0,99,0.00,CLR,SCT,0.00,0.0,WeatherDisplay:10.37,2013-06-26 10:15:00,
2013-06-26 06:25:00,70.0,69.7,29.66,SSE,157,0.0,1.0,99,0.00,CLR,SCT,0.00,0.0,WeatherDisplay:10.37,2013-06-26 10:25:00,
2013-06-26 06:30:00,70.0,69.7,29.66,East,90,0.0,1.0,99,0.00,CLR,SCT,0.00,0.0,WeatherDisplay:10.37,2013-06-26 10:30:00,
2013-06-26 06:40:00,70.3,70.0,29.66,East,90,0.0,2.0,99,0.00,CLR,SCT,0.00,0.0,WeatherDisplay:10.37,2013-06-26 10:40:00,
2013-06-26 06:45:00,70.3,70.0,29.66,East,90,0.0,2.0,99,0.00,CLR,SCT,0.00,0.0,WeatherDisplay:10.37,2013-06-26 10:45:00,
2013-06-26 06:55:00,70.5,70.2,29.66,East,90,0.0,1.0,99,0.00,CLR,SCT,0.00,0.0,WeatherDisplay:10.37,2013-06-26 10:55:00,
2013-06-26 07:00:00,70.5,70.2,29.66,East,90,0.0,1.0,99,0.00,CLR,SCT,0.00,0.0,WeatherDisplay:10.37,2013-06-26 11:00:00,
2013-06-26 07:10:00,70.6,70.3,29.66,East,90,0.0,1.0,99,0.00,CLR,SCT,0.00,0.0,WeatherDisplay:10.37,2013-06-26 11:10:00,
2013-06-26 07:15:00,70.9,70.6,29.65,East,90,0.0,1.0,99,0.00,CLR,SCT,0.00,0.0,WeatherDisplay:10.37,2013-06-26 11:15:00,
2013-06-26 07:25:00,71.6,71.3,29.66,ESE,114,0.0,2.0,99,0.00,CLR,SCT,0.00,0.0,WeatherDisplay:10.37,2013-06-26 11:25:00,
2013-06-26 07:30:00,71.6,71.3,29.66,WSW,238,0.0,2.0,99,0.00,CLR,SCT,0.00,0.0,WeatherDisplay:10.37,2013-06-26 11:30:00,
2013-06-26 07:40:00,72.1,71.8,29.67,NW,316,0.0,2.0,99,0.00,CLR,SCT,0.00,0.0,WeatherDisplay:10.37,2013-06-26 11:40:00,
2013-06-26 07:45:00,72.3,72.0,29.67,NW,305,0.0,2.0,99,0.00,CLR,SCT,0.00,0.0,WeatherDisplay:10.37,2013-06-26 11:45:00,
2013-06-26 07:55:00,72.9,72.6,29.66,WNW,282,0.0,2.0,99,0.00,CLR,SCT,0.00,0.0,WeatherDisplay:10.37,2013-06-26 11:55:00,
2013-06-26 08:00:00,73.1,72.8,29.67,NW,320,0.0,5.0,99,0.00,CLR,SCT,0.00,0.0,WeatherDisplay:10.37,2013-06-26 12:00:00,
2013-06-26 08:10:00,73.7,73.4,29.67,ENE,74,0.0,2.0,99,0.00,BKN,SCT,0.00,0.0,WeatherDisplay:10.37,2013-06-26 12:10:00,
2013-06-26 08:15:00,73.9,73.6,29.66,NNE,24,0.0,2.0,99,0.00,BKN,SCT,0.00,0.0,WeatherDisplay:10.37,2013-06-26 12:15:00,
2013-06-26 08:25:00,74.3,74.0,29.66,North,11,0.0,3.0,99,0.00,BKN,SCT,0.00,0.0,WeatherDisplay:10.37,2013-06-26 12:25:00,
2013-06-26 08:30:00,74.5,74.2,29.67,North,8,0.0,2.0,99,0.00,BKN,SCT,0.00,0.0,WeatherDisplay:10.37,2013-06-26 12:30:00,
2013-06-26 08:40:00,74.8,74.5,29.67,NE,54,1.0,3.0,99,0.00,BKN,SCT,0.00,0.0,WeatherDisplay:10.37,2013-06-26 12:40:00,
2013-06-26 08:45:00,75.0,74.7,29.67,SE,141,0.0,2.0,99,0.00,BKN,SCT,0.00,0.0,WeatherDisplay:10.37,2013-06-26 12:45:00,
2013-06-26 08:55:00,75.5,75.2,29.67,East,101,0.0,3.0,99,0.00,BKN,SCT,0.00,0.0,WeatherDisplay:10.37,2013-06-26 12:55:00,
2013-06-26 09:00:00,75.6,75.3,29.67,ENE,61,1.0,3.0,99,0.00,BKN,SCT,0.00,0.0,WeatherDisplay:10.37,2013-06-26 13:00:00,
2013-06-26 09:10:00,76.5,76.2,29.67,NNE,24,0.0,4.0,99,0.00,CLR,SCT,0.00,0.0,WeatherDisplay:10.37,2013-06-26 13:10:00,
2013-06-26 09:15:00,76.8,76.5,29.66,NE,43,1.0,2.0,99,0.00,CLR,SCT,0.00,0.0,WeatherDisplay:10.37,2013-06-26 13:15:00,
2013-06-26 09:25:00,77.5,77.2,29.66,North,1,0.0,5.0,99,0.00,CLR,SCT,0.00,0.0,WeatherDisplay:10.37,2013-06-26 13:25:00,
2013-06-26 09:30:00,77.7,77.4,29.66,North,358,1.0,4.0,99,0.00,CLR,SCT,0.00,0.0,WeatherDisplay:10.37,2013-06-26 13:30:00,
2013-06-26 09:40:00,78.6,78.3,29.67,North,8,2.0,6.0,99,0.00,CLR,SCT,0.00,0.0,WeatherDisplay:10.37,2013-06-26 13:40:00,
2013-06-26 09:45:00,79.0,78.4,29.67,NNE,20,2.0,8.0,98,0.00,CLR,SCT,0.00,0.0,WeatherDisplay:10.37,2013-06-26 13:45:00,
2013-06-26 09:55:00,79.8,77.9,29.67,NE,52,1.0,6.0,94,0.00,CLR,SCT,0.00,0.0,WeatherDisplay:10.37,2013-06-26 13:55:00,
2013-06-26 10:00:00,80.2,78.4,29.67,ENE,77,0.0,4.0,94,0.00,CLR,SCT,0.00,0.0,WeatherDisplay:10.37,2013-06-26 14:00:00,
2013-06-26 10:10:00,80.6,78.4,29.67,North,0,1.0,5.0,93,0.00,FEW,SCT,0.00,0.0,WeatherDisplay:10.37,2013-06-26 14:10:00,
2013-06-26 10:15:00,81.0,79.1,29.67,ESE,108,0.0,2.0,94,0.00,FEW,SCT,0.00,0.0,WeatherDisplay:10.37,2013-06-26 14:15:00,
2013-06-26 10:25:00,82.0,80.1,29.67,West,260,0.0,3.0,94,0.00,FEW,SCT,0.00,0.0,WeatherDisplay:10.37,2013-06-26 14:25:00,
2013-06-26 10:30:00,81.9,80.3,29.66,WSW,251,0.0,2.0,95,0.00,FEW,SCT,0.00,0.0,WeatherDisplay:10.37,2013-06-26 14:30:00,
2013-06-26 10:40:00,81.7,77.8,29.67,West,262,1.0,2.0,88,0.00,FEW,SCT,0.00,0.0,WeatherDisplay:10.37,2013-06-26 14:40:00,
2013-06-26 10:45:00,82.0,79.2,29.67,West,279,0.0,2.0,91,0.00,FEW,SCT,0.00,0.0,WeatherDisplay:10.37,2013-06-26 14:45:00,
2013-06-26 10:55:00,82.4,79.2,29.67,NW,306,0.0,2.0,90,0.00,FEW,SCT,0.00,0.0,WeatherDisplay:10.37,2013-06-26 14:55:00,
2013-06-26 11:00:00,81.8,78.2,29.67,NNW,344,0.0,2.0,89,0.00,FEW,SCT,0.00,0.0,WeatherDisplay:10.37,2013-06-26 15:00:00,
2013-06-26 11:10:00,81.0,79.1,29.67,NW,326,0.0,2.0,94,0.00,OVC,SCT,0.00,0.0,WeatherDisplay:10.37,2013-06-26 15:10:00,
2013-06-26 11:15:00,80.7,79.1,29.67,NW,315,0.0,1.0,95,0.00,OVC,SCT,0.00,0.0,WeatherDisplay:10.37,2013-06-26 15:15:00,
2013-06-26 11:25:00,79.9,79.0,29.67,NNW,335,0.0,2.0,97,0.04,RA,SCT,0.04,0.0,WeatherDisplay:10.37,2013-06-26 15:25:00,
2013-06-26 11:30:00,79.0,78.7,29.67,North,359,0.0,2.0,99,0.00,RA,SCT,0.04,0.0,WeatherDisplay:10.37,2013-06-26 15:30:00,
2013-06-26 11:40:00,77.4,77.1,29.67,North,0,0.0,2.0,99,0.04,RA,SCT,0.07,0.0,WeatherDisplay:10.37,2013-06-26 15:40:00,
2013-06-26 11:45:00,76.8,76.5,29.67,North,0,0.0,2.0,99,0.00,RA,SCT,0.07,0.0,WeatherDisplay:10.37,2013-06-26 15:45:00,
2013-06-26 11:55:00,76.8,76.5,29.67,North,0,0.0,2.0,99,0.00,BKN,SCT,0.07,0.0,WeatherDisplay:10.37,2013-06-26 15:55:00,
2013-06-26 12:00:00,77.2,76.9,29.67,North,0,0.0,1.0,99,0.00,BKN,SCT,0.07,0.0,WeatherDisplay:10.37,2013-06-26 16:00:00,
2013-06-26 12:10:00,77.2,76.9,29.67,North,0,0.0,1.0,99,0.00,-RA,SCT,0.07,0.0,WeatherDisplay:10.37,2013-06-26 16:10:00,
2013-06-26 12:15:00,77.5,77.2,29.67,North,0,1.0,2.0,99,0.00,-RA,SCT,0.07,0.0,WeatherDisplay:10.37,2013-06-26 16:15:00,
2013-06-26 12:25:00,78.4,78.1,29.67,North,0,0.0,2.0,99,0.00,-RA,SCT,0.07,0.0,WeatherDisplay:10.37,2013-06-26 16:25:00,
2013-06-26 12:30:00,78.3,78.0,29.67,North,0,0.0,2.0,99,0.00,-RA,SCT,0.07,0.0,WeatherDisplay:10.37,2013-06-26 16:30:00,
2013-06-26 12:40:00,78.9,78.6,29.67,North,0,0.0,2.0,99,0.00,-RA,SCT,0.07,0.0,WeatherDisplay:10.37,2013-06-26 16:40:00,
2013-06-26 12:45:00,80.2,79.9,29.67,North,5,1.0,3.0,99,0.01,-RA,SCT,0.08,0.0,WeatherDisplay:10.37,2013-06-26 16:45:00,
2013-06-26 12:55:00,79.9,79.6,29.67,NE,46,0.0,5.0,99,0.00,-RA,SCT,0.08,0.0,WeatherDisplay:10.37,2013-06-26 16:55:00,
2013-06-26 13:00:00,79.6,79.3,29.68,NNW,341,0.0,2.0,99,0.00,-RA,SCT,0.08,0.0,WeatherDisplay:10.37,2013-06-26 17:00:00,
2013-06-26 13:10:00,80.4,80.0,29.67,West,278,1.0,5.0,99,0.00, +RA,SCT,0.08,0.0,WeatherDisplay:10.37,2013-06-26 17:10:00,
2013-06-26 13:15:00,81.0,80.7,29.68,North,5,2.0,6.0,99,0.00, +RA,SCT,0.08,0.0,WeatherDisplay:10.37,2013-06-26 17:15:00,
2013-06-26 13:25:00,80.9,79.1,29.67,NNE,32,1.0,6.0,94,0.00, +RA,SCT,0.08,0.0,WeatherDisplay:10.37,2013-06-26 17:25:00,
2013-06-26 13:30:00,80.3,78.4,29.67,NE,51,2.0,5.0,94,0.00, +RA,SCT,0.08,0.0,WeatherDisplay:10.37,2013-06-26 17:30:00,
2013-06-26 13:40:00,78.5,77.0,29.67,ENE,67,2.0,7.0,95,0.00,-RA,SCT,0.08,0.0,WeatherDisplay:10.37,2013-06-26 17:40:00,
2013-06-26 13:45:00,78.1,77.5,29.67,NE,48,0.0,6.0,98,0.00,-RA,SCT,0.08,0.0,WeatherDisplay:10.37,2013-06-26 17:45:00,
2013-06-26 13:55:00,78.6,78.3,29.67,WNW,282,1.0,2.0,99,0.00,-RA,SCT,0.08,0.0,WeatherDisplay:10.37,2013-06-26 17:55:00,
2013-06-26 14:00:00,78.7,78.4,29.67,WNW,284,0.0,3.0,99,0.00,-RA,SCT,0.08,0.0,WeatherDisplay:10.37,2013-06-26 18:00:00,
2013-06-26 14:10:00,79.0,78.7,29.67,NE,34,1.0,3.0,99,0.00,FEW,SCT,0.08,0.0,WeatherDisplay:10.37,2013-06-26 18:10:00,
2013-06-26 14:15:00,79.3,79.0,29.67,North,358,0.0,2.0,99,0.00,FEW,SCT,0.08,0.0,WeatherDisplay:10.37,2013-06-26 18:15:00,
2013-06-26 14:25:00,80.4,79.5,29.67,NNW,332,0.0,3.0,97,0.00,FEW,SCT,0.08,0.0,WeatherDisplay:10.37,2013-06-26 18:25:00,
2013-06-26 14:30:00,81.1,79.9,29.67,NNE,17,0.0,2.0,96,0.00,FEW,SCT,0.08,0.0,WeatherDisplay:10.37,2013-06-26 18:30:00,
2013-06-26 14:40:00,82.3,79.4,29.67,NNE,33,0.0,4.0,91,0.00,SCT,SCT,0.08,0.0,WeatherDisplay:10.37,2013-06-26 18:40:00,
2013-06-26 14:45:00,82.0,78.5,29.67,NNE,12,0.0,4.0,89,0.00,SCT,SCT,0.08,0.0,WeatherDisplay:10.37,2013-06-26 18:45:00,
2013-06-26 14:55:00,81.4,78.5,29.67,NW,315,0.0,2.0,91,0.00,SCT,SCT,0.08,0.0,WeatherDisplay:10.37,2013-06-26 18:55:00,
2013-06-26 15:01:00,80.2,77.7,29.67,NW,315,1.0,2.0,92,0.00,SCT,SCT,0.08,0.0,WeatherDisplay:10.37,2013-06-26 19:01:00,
2013-06-26 15:10:00,77.9,77.6,29.67,NW,310,1.0,2.0,99,0.05,RA,SCT,0.13,0.0,WeatherDisplay:10.37,2013-06-26 19:10:00,
2013-06-26 15:15:00,77.0,76.7,29.68,WNW,283,0.0,2.0,99,0.05,RA,SCT,0.18,0.0,WeatherDisplay:10.37,2013-06-26 19:15:00,
2013-06-26 15:25:00,75.8,75.5,29.67,West,270,0.0,1.0,99,0.18,RA,SCT,0.35,0.0,WeatherDisplay:10.37,2013-06-26 19:25:00,
2013-06-26 15:31:00,74.4,74.1,29.66,East,90,0.0,1.0,99,0.00,RA,SCT,0.35,0.0,WeatherDisplay:10.37,2013-06-26 19:31:00,
2013-06-26 15:40:00,74.3,74.0,29.67,SE,130,0.0,2.0,99,0.00,SCT,SCT,0.35,0.0,WeatherDisplay:10.37,2013-06-26 19:40:00,
2013-06-26 15:45:00,74.1,73.8,29.67,SW,222,0.0,2.0,99,0.00,SCT,SCT,0.35,0.0,WeatherDisplay:10.37,2013-06-26 19:45:00,
2013-06-26 15:55:00,74.1,73.8,29.67,SSE,160,0.0,2.0,99,0.00,SCT,SCT,0.35,0.0,WeatherDisplay:10.37,2013-06-26 19:55:00,
2013-06-26 16:01:00,74.0,73.7,29.67,SSE,151,0.0,2.0,99,0.00,SCT,SCT,0.35,0.0,WeatherDisplay:10.37,2013-06-26 20:01:00,
2013-06-26 16:10:00,73.8,73.5,29.67,South,180,0.0,1.0,99,0.00,BKN,SCT,0.35,0.0,WeatherDisplay:10.37,2013-06-26 20:10:00,
2013-06-26 16:15:00,73.9,73.6,29.67,South,180,0.0,1.0,99,0.00,BKN,SCT,0.35,0.0,WeatherDisplay:10.37,2013-06-26 20:15:00,
2013-06-26 16:20:00,73.9,73.6,29.66,South,180,0.0,1.0,99,0.00,BKN,SCT,0.35,0.0,WeatherDisplay:10.37,2013-06-26 20:20:00,
2013-06-26 16:41:00,75.4,75.1,29.66,ENE,66,0.0,2.0,99,0.01,RA,SCT,0.37,0.0,WeatherDisplay:10.37,2013-06-26 20:41:00,
2013-06-26 16:51:00,75.7,75.4,29.68,NNE,33,3.0,10.0,99,0.00,BKN,SCT,0.37,0.0,WeatherDisplay:10.37,2013-06-26 20:51:00,
2013-06-26 17:02:00,74.8,74.5,29.67,ENE,57,2.0,8.0,99,0.00,BKN,SCT,0.37,0.0,WeatherDisplay:10.37,2013-06-26 21:02:00,
2013-06-26 17:11:00,74.6,74.3,29.68,NE,45,1.0,6.0,99,0.00,OVC,SCT,0.37,0.0,WeatherDisplay:10.37,2013-06-26 21:11:00,
2013-06-26 17:16:00,74.1,73.8,29.68,NE,51,2.0,6.0,99,0.00,OVC,SCT,0.37,0.0,WeatherDisplay:10.37,2013-06-26 21:16:00,
2013-06-26 17:26:00,73.9,73.6,29.69,ENE,67,3.0,9.0,99,0.00,OVC,SCT,0.37,0.0,WeatherDisplay:10.37,2013-06-26 21:26:00,
2013-06-26 17:31:00,73.8,73.5,29.69,NE,50,3.0,9.0,99,0.00,OVC,SCT,0.37,0.0,WeatherDisplay:10.37,2013-06-26 21:31:00,
2013-06-26 17:41:00,73.4,73.1,29.69,ENE,69,0.0,5.0,99,0.00,BKN,SCT,0.37,0.0,WeatherDisplay:10.37,2013-06-26 21:41:00,
2013-06-26 17:46:00,73.4,73.1,29.69,North,0,0.0,2.0,99,0.00,BKN,SCT,0.37,0.0,WeatherDisplay:10.37,2013-06-26 21:46:00,
2013-06-26 17:56:00,73.3,73.0,29.69,NW,319,0.0,2.0,99,0.00,BKN,SCT,0.37,0.0,WeatherDisplay:10.37,2013-06-26 21:56:00,
2013-06-26 18:02:00,73.3,73.0,29.69,NNW,346,0.0,2.0,99,0.00,BKN,SCT,0.37,0.0,WeatherDisplay:10.37,2013-06-26 22:02:00,
2013-06-26 18:11:00,72.7,72.4,29.69,NNW,339,0.0,3.0,99,0.00,-RA,SCT,0.37,0.0,WeatherDisplay:10.37,2013-06-26 22:11:00,
2013-06-26 18:16:00,72.6,72.3,29.69,WNW,295,1.0,2.0,99,0.00,-RA,SCT,0.37,0.0,WeatherDisplay:10.37,2013-06-26 22:16:00,
2013-06-26 18:26:00,71.4,71.2,29.70,West,270,0.0,2.0,99,0.00,-RA,SCT,0.37,0.0,WeatherDisplay:10.37,2013-06-26 22:26:00,
2013-06-26 18:31:00,71.3,71.1,29.70,West,270,1.0,2.0,99,0.00,-RA,SCT,0.37,0.0,WeatherDisplay:10.37,2013-06-26 22:31:00,
2013-06-26 18:46:00,71.2,70.9,29.70,West,270,0.0,2.0,99,0.00,-RA,SCT,0.37,0.0,WeatherDisplay:10.37,2013-06-26 22:46:00,
2013-06-26 18:56:00,71.1,70.8,29.70,West,270,0.0,1.0,99,0.00,-RA,SCT,0.37,0.0,WeatherDisplay:10.37,2013-06-26 22:56:00,
2013-06-26 19:02:00,71.1,70.8,29.69,West,270,0.0,1.0,99,0.00,-RA,SCT,0.37,0.0,WeatherDisplay:10.37,2013-06-26 23:02:00,
2013-06-26 19:17:00,71.3,71.0,29.69,West,270,1.0,2.0,99,0.00,CLR,SCT,0.37,0.0,WeatherDisplay:10.37,2013-06-26 23:17:00,
2013-06-26 19:36:00,71.4,71.1,29.71,West,270,0.0,2.0,99,0.00,CLR,SCT,0.37,0.0,WeatherDisplay:10.37,2013-06-26 23:36:00,
2013-06-26 19:47:00,71.5,71.2,29.70,NNW,332,0.0,0.0,99,0.00,CLR,SCT,0.37,0.0,WeatherDisplay:10.37,2013-06-26 23:47:00,
2013-06-26 20:03:00,70.9,70.6,29.71,North,8,0.0,1.0,99,0.00,CLR,SCT,0.37,0.0,WeatherDisplay:10.37,2013-06-27 00:03:00,
2013-06-26 20:11:00,70.9,70.6,29.73,North,359,0.0,1.0,99,0.00,SCT,SCT,0.37,0.0,WeatherDisplay:10.37,2013-06-27 00:11:00,
2013-06-26 20:21:00,70.7,70.4,29.73,NW,316,0.0,2.0,99,0.00,SCT,SCT,0.37,0.0,WeatherDisplay:10.37,2013-06-27 00:21:00,
2013-06-26 20:37:00,70.5,70.2,29.73,NW,315,0.0,0.0,99,0.00,SCT,SCT,0.37,0.0,WeatherDisplay:10.37,2013-06-27 00:37:00,
2013-06-26 20:51:00,70.5,70.2,29.73,NNW,343,0.0,2.0,99,0.00,SCT,SCT,0.37,0.0,WeatherDisplay:10.37,2013-06-27 00:51:00,
2013-06-26 21:02:00,70.7,70.4,29.73,North,359,1.0,3.0,99,0.00,SCT,SCT,0.37,0.0,WeatherDisplay:10.37,2013-06-27 01:02:00,
2013-06-26 21:16:00,70.9,70.6,29.73,NE,47,0.0,2.0,99,0.00,BKN,SCT,0.37,0.0,WeatherDisplay:10.37,2013-06-27 01:16:00,
2013-06-26 21:26:00,70.7,70.4,29.73,East,88,0.0,1.0,99,0.00,BKN,SCT,0.37,0.0,WeatherDisplay:10.37,2013-06-27 01:26:00,
2013-06-26 21:36:00,70.7,70.4,29.74,North,0,0.0,2.0,99,0.00,BKN,SCT,0.37,0.0,WeatherDisplay:10.37,2013-06-27 01:36:00,
2013-06-26 21:56:00,70.7,70.4,29.75,NE,43,0.0,2.0,99,0.00,BKN,SCT,0.37,0.0,WeatherDisplay:10.37,2013-06-27 01:56:00,
2013-06-26 22:03:00,70.6,70.3,29.75,North,7,0.0,2.0,99,0.00,BKN,SCT,0.37,0.0,WeatherDisplay:10.37,2013-06-27 02:03:00,
2013-06-26 22:11:00,70.6,70.3,29.75,WNW,296,0.0,2.0,99,0.00,SCT,SCT,0.37,0.0,WeatherDisplay:10.37,2013-06-27 02:11:00,
2013-06-26 22:16:00,70.7,70.4,29.75,West,274,0.0,1.0,99,0.00,SCT,SCT,0.37,0.0,WeatherDisplay:10.37,2013-06-27 02:16:00,
2013-06-26 22:25:00,70.5,70.2,29.75,SSE,167,1.0,2.0,99,0.00,SCT,SCT,0.37,0.0,WeatherDisplay:10.37,2013-06-27 02:25:00,
2013-06-26 22:30:00,70.5,70.2,29.75,South,181,1.0,4.0,99,0.00,SCT,SCT,0.37,0.0,WeatherDisplay:10.37,2013-06-27 02:30:00,
2013-06-26 22:40:00,70.3,70.0,29.75,SW,225,0.0,2.0,99,0.00,SCT,SCT,0.37,0.0,WeatherDisplay:10.37,2013-06-27 02:40:00,
2013-06-26 22:45:00,70.2,69.9,29.75,SSW,213,0.0,1.0,99,0.01,RA,SCT,0.38,0.0,WeatherDisplay:10.37,2013-06-27 02:45:00,
2013-06-26 22:55:00,70.0,69.7,29.75,SSW,202,0.0,1.0,99,0.00,SCT,SCT,0.38,0.0,WeatherDisplay:10.37,2013-06-27 02:55:00,
2013-06-26 23:01:00,69.8,69.5,29.75,SSW,202,0.0,1.0,99,0.00,SCT,SCT,0.38,0.0,WeatherDisplay:10.37,2013-06-27 03:01:00,
2013-06-26 23:10:00,69.6,69.3,29.75,SSW,198,0.0,2.0,99,0.00,BKN,SCT,0.38,0.0,WeatherDisplay:10.37,2013-06-27 03:10:00,
2013-06-26 23:15:00,69.5,69.2,29.76,NE,43,0.0,2.0,99,0.00,BKN,SCT,0.38,0.0,WeatherDisplay:10.37,2013-06-27 03:15:00,
2013-06-26 23:25:00,69.2,68.9,29.75,South,188,0.0,2.0,99,0.00,BKN,SCT,0.38,0.0,WeatherDisplay:10.37,2013-06-27 03:25:00,
2013-06-26 23:30:00,69.1,68.8,29.75,South,177,0.0,2.0,99,0.00,BKN,SCT,0.38,0.0,WeatherDisplay:10.37,2013-06-27 03:30:00,
2013-06-26 23:40:00,68.7,68.4,29.75,SW,235,0.0,2.0,99,0.00,SCT,SCT,0.38,0.0,WeatherDisplay:10.37,2013-06-27 03:40:00,
2013-06-26 23:45:00,68.4,68.1,29.75,WSW,256,0.0,2.0,99,0.00,SCT,SCT,0.38,0.0,WeatherDisplay:10.37,2013-06-27 03:45:00,
2013-06-26 23:55:00,67.8,67.5,29.75,South,190,0.0,3.0,99,0.00,SCT,SCT,0.38,0.0,WeatherDisplay:10.37,2013-06-27 03:55:00,